sensor_id;sensor_type;location;lat;lon;timestamp;temperature;humidity
52965;DHT22;42923;53.220;6.528;2022-11-12T00:02:08;6.00;99.90
52965;DHT22;42923;53.220;6.528;2022-11-12T00:04:53;6.00;99.90
52965;DHT22;42923;53.220;6.528;2022-11-12T00:07:37;5.90;99.90
52965;DHT22;42923;53.220;6.528;2022-11-12T00:10:22;5.90;99.90
52965;DHT22;42923;53.220;6.528;2022-11-12T00:13:06;5.80;99.90
52965;DHT22;42923;53.220;6.528;2022-11-12T00:15:51;5.80;99.90
52965;DHT22;42923;53.220;6.528;2022-11-12T00:18:35;5.80;99.90
52965;DHT22;42923;53.220;6.528;2022-11-12T00:21:19;5.80;99.90
52965;DHT22;42923;53.220;6.528;2022-11-12T00:24:03;5.90;99.90
52965;DHT22;42923;53.220;6.528;2022-11-12T00:26:48;5.60;99.90
52965;DHT22;42923;53.220;6.528;2022-11-12T00:29:32;5.50;99.90
52965;DHT22;42923;53.220;6.528;2022-11-12T00:32:16;5.50;99.90
52965;DHT22;42923;53.220;6.528;2022-11-12T00:35:00;5.40;99.90
52965;DHT22;42923;53.220;6.528;2022-11-12T00:37:44;5.40;99.90
52965;DHT22;42923;53.220;6.528;2022-11-12T00:40:28;5.90;99.90
52965;DHT22;42923;53.220;6.528;2022-11-12T00:43:12;5.40;99.90
52965;DHT22;42923;53.220;6.528;2022-11-12T00:45:56;5.50;99.90
52965;DHT22;42923;53.220;6.528;2022-11-12T00:48:41;5.40;99.90
52965;DHT22;42923;53.220;6.528;2022-11-12T00:51:25;5.40;99.90
52965;DHT22;42923;53.220;6.528;2022-11-12T00:54:09;5.40;99.90
52965;DHT22;42923;53.220;6.528;2022-11-12T00:56:53;5.40;99.90
52965;DHT22;42923;53.220;6.528;2022-11-12T00:59:37;5.50;99.90
52965;DHT22;42923;53.220;6.528;2022-11-12T01:02:21;5.30;99.90
52965;DHT22;42923;53.220;6.528;2022-11-12T01:05:06;5.40;99.90
52965;DHT22;42923;53.220;6.528;2022-11-12T01:07:50;5.30;99.90
52965;DHT22;42923;53.220;6.528;2022-11-12T01:10:35;5.30;99.90
52965;DHT22;42923;53.220;6.528;2022-11-12T01:13:19;5.20;99.90
52965;DHT22;42923;53.220;6.528;2022-11-12T01:16:17;5.20;99.90
52965;DHT22;42923;53.220;6.528;2022-11-12T01:19:07;5.10;99.90
52965;DHT22;42923;53.220;6.528;2022-11-12T01:21:52;5.00;99.90
52965;DHT22;42923;53.220;6.528;2022-11-12T01:24:36;5.00;99.90
52965;DHT22;42923;53.220;6.528;2022-11-12T01:27:20;5.00;99.90
52965;DHT22;42923;53.220;6.528;2022-11-12T01:30:05;5.40;99.90
52965;DHT22;42923;53.220;6.528;2022-11-12T01:32:49;5.00;99.90
52965;DHT22;42923;53.220;6.528;2022-11-12T01:35:33;5.00;99.90
52965;DHT22;42923;53.220;6.528;2022-11-12T01:38:17;5.10;99.90
52965;DHT22;42923;53.220;6.528;2022-11-12T01:41:03;5.10;99.90
52965;DHT22;42923;53.220;6.528;2022-11-12T01:43:47;5.10;99.90
52965;DHT22;42923;53.220;6.528;2022-11-12T01:46:33;5.10;99.90
52965;DHT22;42923;53.220;6.528;2022-11-12T01:49:23;5.10;99.90
52965;DHT22;42923;53.220;6.528;2022-11-12T01:52:33;5.10;99.90
52965;DHT22;42923;53.220;6.528;2022-11-12T01:55:23;5.20;99.90
52965;DHT22;42923;53.220;6.528;2022-11-12T01:58:13;5.20;99.90
52965;DHT22;42923;53.220;6.528;2022-11-12T02:00:59;5.10;99.90
52965;DHT22;42923;53.220;6.528;2022-11-12T02:03:44;5.10;99.90
52965;DHT22;42923;53.220;6.528;2022-11-12T02:06:29;5.10;99.90
52965;DHT22;42923;53.220;6.528;2022-11-12T02:09:14;5.10;99.90
52965;DHT22;42923;53.220;6.528;2022-11-12T02:11:59;5.10;99.90
52965;DHT22;42923;53.220;6.528;2022-11-12T02:14:44;5.00;99.90
52965;DHT22;42923;53.220;6.528;2022-11-12T02:17:28;5.00;99.90
52965;DHT22;42923;53.220;6.528;2022-11-12T02:20:13;4.90;99.90
52965;DHT22;42923;53.220;6.528;2022-11-12T02:22:57;4.90;99.90
52965;DHT22;42923;53.220;6.528;2022-11-12T02:25:41;4.90;99.90
52965;DHT22;42923;53.220;6.528;2022-11-12T02:28:26;4.80;99.90
52965;DHT22;42923;53.220;6.528;2022-11-12T02:31:11;4.80;99.90
52965;DHT22;42923;53.220;6.528;2022-11-12T02:33:55;5.20;99.90
52965;DHT22;42923;53.220;6.528;2022-11-12T02:36:39;5.00;99.90
52965;DHT22;42923;53.220;6.528;2022-11-12T02:39:23;4.70;99.90
52965;DHT22;42923;53.220;6.528;2022-11-12T02:42:07;4.70;99.90
52965;DHT22;42923;53.220;6.528;2022-11-12T02:44:51;4.80;99.90
52965;DHT22;42923;53.220;6.528;2022-11-12T02:47:35;4.80;99.90
52965;DHT22;42923;53.220;6.528;2022-11-12T02:50:19;4.80;99.90
52965;DHT22;42923;53.220;6.528;2022-11-12T02:53:03;4.80;99.90
52965;DHT22;42923;53.220;6.528;2022-11-12T02:55:48;4.80;99.90
52965;DHT22;42923;53.220;6.528;2022-11-12T02:58:32;4.80;99.90
52965;DHT22;42923;53.220;6.528;2022-11-12T03:01:16;4.70;99.90
52965;DHT22;42923;53.220;6.528;2022-11-12T03:04:00;4.80;99.90
52965;DHT22;42923;53.220;6.528;2022-11-12T03:06:45;4.70;99.90
52965;DHT22;42923;53.220;6.528;2022-11-12T03:09:29;4.70;99.90
52965;DHT22;42923;53.220;6.528;2022-11-12T03:12:13;4.80;99.90
52965;DHT22;42923;53.220;6.528;2022-11-12T03:14:57;4.80;99.90
52965;DHT22;42923;53.220;6.528;2022-11-12T03:17:42;4.70;99.90
52965;DHT22;42923;53.220;6.528;2022-11-12T03:20:27;4.70;99.90
52965;DHT22;42923;53.220;6.528;2022-11-12T03:23:11;4.70;99.90
52965;DHT22;42923;53.220;6.528;2022-11-12T03:25:55;4.70;99.90
52965;DHT22;42923;53.220;6.528;2022-11-12T03:28:39;4.70;99.90
52965;DHT22;42923;53.220;6.528;2022-11-12T03:31:24;4.70;99.90
52965;DHT22;42923;53.220;6.528;2022-11-12T03:34:09;4.70;99.90
52965;DHT22;42923;53.220;6.528;2022-11-12T03:36:54;4.80;99.90
52965;DHT22;42923;53.220;6.528;2022-11-12T03:39:38;4.60;99.90
52965;DHT22;42923;53.220;6.528;2022-11-12T03:42:22;4.60;99.90
52965;DHT22;42923;53.220;6.528;2022-11-12T03:45:06;4.60;99.90
52965;DHT22;42923;53.220;6.528;2022-11-12T03:47:53;4.60;99.90
52965;DHT22;42923;53.220;6.528;2022-11-12T03:50:38;4.60;99.90
52965;DHT22;42923;53.220;6.528;2022-11-12T03:53:23;4.60;99.90
52965;DHT22;42923;53.220;6.528;2022-11-12T03:56:07;4.60;99.90
52965;DHT22;42923;53.220;6.528;2022-11-12T03:58:51;4.60;99.90
52965;DHT22;42923;53.220;6.528;2022-11-12T04:01:36;4.60;99.90
52965;DHT22;42923;53.220;6.528;2022-11-12T04:04:20;4.60;99.90
52965;DHT22;42923;53.220;6.528;2022-11-12T04:07:04;4.60;99.90
52965;DHT22;42923;53.220;6.528;2022-11-12T04:10:07;4.50;99.90
52965;DHT22;42923;53.220;6.528;2022-11-12T04:12:51;4.50;99.90
52965;DHT22;42923;53.220;6.528;2022-11-12T04:19:04;4.40;99.90
52965;DHT22;42923;53.220;6.528;2022-11-12T04:22:09;4.40;99.90
52965;DHT22;42923;53.220;6.528;2022-11-12T04:24:54;4.90;99.90
52965;DHT22;42923;53.220;6.528;2022-11-12T04:27:58;4.30;99.90
52965;DHT22;42923;53.220;6.528;2022-11-12T04:30:42;4.30;99.90
52965;DHT22;42923;53.220;6.528;2022-11-12T04:33:27;4.20;99.90
52965;DHT22;42923;53.220;6.528;2022-11-12T04:36:11;4.30;99.90
52965;DHT22;42923;53.220;6.528;2022-11-12T04:38:55;4.20;99.90
52965;DHT22;42923;53.220;6.528;2022-11-12T04:41:39;4.20;99.90
52965;DHT22;42923;53.220;6.528;2022-11-12T04:44:42;4.10;99.90
52965;DHT22;42923;53.220;6.528;2022-11-12T04:47:46;4.10;99.90
52965;DHT22;42923;53.220;6.528;2022-11-12T04:50:30;4.10;99.90
52965;DHT22;42923;53.220;6.528;2022-11-12T04:53:15;4.10;99.90
52965;DHT22;42923;53.220;6.528;2022-11-12T04:55:59;4.10;99.90
52965;DHT22;42923;53.220;6.528;2022-11-12T04:58:43;4.10;99.90
52965;DHT22;42923;53.220;6.528;2022-11-12T05:01:28;4.20;99.90
52965;DHT22;42923;53.220;6.528;2022-11-12T05:04:12;4.30;99.90
52965;DHT22;42923;53.220;6.528;2022-11-12T05:06:57;4.30;99.90
52965;DHT22;42923;53.220;6.528;2022-11-12T05:09:42;4.40;99.90
52965;DHT22;42923;53.220;6.528;2022-11-12T05:12:27;4.50;99.90
52965;DHT22;42923;53.220;6.528;2022-11-12T05:15:11;4.50;99.90
52965;DHT22;42923;53.220;6.528;2022-11-12T05:17:55;4.60;99.90
52965;DHT22;42923;53.220;6.528;2022-11-12T05:20:39;4.60;99.90
52965;DHT22;42923;53.220;6.528;2022-11-12T05:23:24;4.70;99.90
52965;DHT22;42923;53.220;6.528;2022-11-12T05:26:08;4.80;99.90
52965;DHT22;42923;53.220;6.528;2022-11-12T05:28:52;4.90;99.90
52965;DHT22;42923;53.220;6.528;2022-11-12T05:31:36;4.90;99.90
52965;DHT22;42923;53.220;6.528;2022-11-12T05:34:20;5.00;99.90
52965;DHT22;42923;53.220;6.528;2022-11-12T05:37:06;5.00;99.90
52965;DHT22;42923;53.220;6.528;2022-11-12T05:39:51;5.00;99.90
52965;DHT22;42923;53.220;6.528;2022-11-12T05:42:35;5.00;99.90
52965;DHT22;42923;53.220;6.528;2022-11-12T05:45:19;4.90;99.90
52965;DHT22;42923;53.220;6.528;2022-11-12T05:48:03;4.90;99.90
52965;DHT22;42923;53.220;6.528;2022-11-12T05:50:51;5.00;99.90
52965;DHT22;42923;53.220;6.528;2022-11-12T05:53:36;5.10;99.90
52965;DHT22;42923;53.220;6.528;2022-11-12T05:56:20;5.10;99.90
52965;DHT22;42923;53.220;6.528;2022-11-12T05:59:07;5.10;99.90
52965;DHT22;42923;53.220;6.528;2022-11-12T06:01:51;5.40;99.90
52965;DHT22;42923;53.220;6.528;2022-11-12T06:04:35;5.10;99.90
52965;DHT22;42923;53.220;6.528;2022-11-12T06:07:19;5.00;99.90
52965;DHT22;42923;53.220;6.528;2022-11-12T06:10:04;4.90;99.90
52965;DHT22;42923;53.220;6.528;2022-11-12T06:12:48;4.80;99.90
52965;DHT22;42923;53.220;6.528;2022-11-12T06:15:32;4.80;99.90
52965;DHT22;42923;53.220;6.528;2022-11-12T06:18:17;4.70;99.90
52965;DHT22;42923;53.220;6.528;2022-11-12T06:21:06;4.60;99.90
52965;DHT22;42923;53.220;6.528;2022-11-12T06:24:03;4.50;99.90
52965;DHT22;42923;53.220;6.528;2022-11-12T06:26:48;4.50;99.90
52965;DHT22;42923;53.220;6.528;2022-11-12T06:29:32;4.40;99.90
52965;DHT22;42923;53.220;6.528;2022-11-12T06:32:17;4.40;99.90
52965;DHT22;42923;53.220;6.528;2022-11-12T06:35:02;4.30;99.90
52965;DHT22;42923;53.220;6.528;2022-11-12T06:37:46;4.20;99.90
52965;DHT22;42923;53.220;6.528;2022-11-12T06:40:30;4.20;99.90
52965;DHT22;42923;53.220;6.528;2022-11-12T06:43:15;4.90;99.90
52965;DHT22;42923;53.220;6.528;2022-11-12T06:46:01;4.10;99.90
52965;DHT22;42923;53.220;6.528;2022-11-12T06:48:46;4.20;99.90
52965;DHT22;42923;53.220;6.528;2022-11-12T06:51:31;4.20;99.90
52965;DHT22;42923;53.220;6.528;2022-11-12T06:54:15;4.30;99.90
52965;DHT22;42923;53.220;6.528;2022-11-12T06:56:59;4.50;99.90
52965;DHT22;42923;53.220;6.528;2022-11-12T06:59:44;4.60;99.90
52965;DHT22;42923;53.220;6.528;2022-11-12T07:02:28;4.70;99.90
52965;DHT22;42923;53.220;6.528;2022-11-12T07:05:12;4.80;99.90
52965;DHT22;42923;53.220;6.528;2022-11-12T07:07:56;4.90;99.90
52965;DHT22;42923;53.220;6.528;2022-11-12T07:10:40;5.00;99.90
52965;DHT22;42923;53.220;6.528;2022-11-12T07:13:24;5.10;99.90
52965;DHT22;42923;53.220;6.528;2022-11-12T07:16:08;5.10;99.90
52965;DHT22;42923;53.220;6.528;2022-11-12T07:18:53;5.20;99.90
52965;DHT22;42923;53.220;6.528;2022-11-12T07:21:37;5.20;99.90
52965;DHT22;42923;53.220;6.528;2022-11-12T07:24:22;5.20;99.90
52965;DHT22;42923;53.220;6.528;2022-11-12T07:27:06;5.50;99.90
52965;DHT22;42923;53.220;6.528;2022-11-12T07:29:50;5.30;99.90
52965;DHT22;42923;53.220;6.528;2022-11-12T07:32:34;5.30;99.90
52965;DHT22;42923;53.220;6.528;2022-11-12T07:35:19;5.40;99.90
52965;DHT22;42923;53.220;6.528;2022-11-12T07:38:03;5.40;99.90
52965;DHT22;42923;53.220;6.528;2022-11-12T07:40:47;5.40;99.90
52965;DHT22;42923;53.220;6.528;2022-11-12T07:43:32;5.40;99.90
52965;DHT22;42923;53.220;6.528;2022-11-12T07:49:02;5.50;99.90
52965;DHT22;42923;53.220;6.528;2022-11-12T07:51:47;5.50;99.90
52965;DHT22;42923;53.220;6.528;2022-11-12T07:54:31;5.50;99.90
52965;DHT22;42923;53.220;6.528;2022-11-12T07:57:15;5.60;99.90
52965;DHT22;42923;53.220;6.528;2022-11-12T08:00:00;5.60;99.90
52965;DHT22;42923;53.220;6.528;2022-11-12T08:02:44;5.70;99.90
52965;DHT22;42923;53.220;6.528;2022-11-12T08:05:28;5.70;99.90
52965;DHT22;42923;53.220;6.528;2022-11-12T08:08:12;5.80;99.90
52965;DHT22;42923;53.220;6.528;2022-11-12T08:10:57;5.80;99.90
52965;DHT22;42923;53.220;6.528;2022-11-12T08:13:41;5.90;99.90
52965;DHT22;42923;53.220;6.528;2022-11-12T08:16:26;6.00;99.90
52965;DHT22;42923;53.220;6.528;2022-11-12T08:19:10;6.00;99.90
52965;DHT22;42923;53.220;6.528;2022-11-12T08:21:54;6.10;99.90
52965;DHT22;42923;53.220;6.528;2022-11-12T08:24:38;6.40;99.90
52965;DHT22;42923;53.220;6.528;2022-11-12T08:27:22;6.20;99.90
52965;DHT22;42923;53.220;6.528;2022-11-12T08:30:07;6.30;99.90
52965;DHT22;42923;53.220;6.528;2022-11-12T08:32:56;6.30;99.90
52965;DHT22;42923;53.220;6.528;2022-11-12T08:35:41;6.30;99.90
52965;DHT22;42923;53.220;6.528;2022-11-12T08:38:25;6.40;99.90
52965;DHT22;42923;53.220;6.528;2022-11-12T08:41:11;6.50;99.90
52965;DHT22;42923;53.220;6.528;2022-11-12T08:43:56;6.50;99.90
52965;DHT22;42923;53.220;6.528;2022-11-12T08:46:40;6.60;99.90
52965;DHT22;42923;53.220;6.528;2022-11-12T08:49:25;6.70;99.90
52965;DHT22;42923;53.220;6.528;2022-11-12T08:52:09;6.80;99.90
52965;DHT22;42923;53.220;6.528;2022-11-12T08:54:53;7.00;99.90
52965;DHT22;42923;53.220;6.528;2022-11-12T08:57:41;6.90;99.90
52965;DHT22;42923;53.220;6.528;2022-11-12T09:00:35;7.30;99.90
52965;DHT22;42923;53.220;6.528;2022-11-12T09:03:22;7.10;99.90
52965;DHT22;42923;53.220;6.528;2022-11-12T09:06:06;7.20;99.90
52965;DHT22;42923;53.220;6.528;2022-11-12T09:08:51;7.30;99.90
52965;DHT22;42923;53.220;6.528;2022-11-12T09:11:35;7.40;99.90
52965;DHT22;42923;53.220;6.528;2022-11-12T09:14:19;7.50;99.90
52965;DHT22;42923;53.220;6.528;2022-11-12T09:17:03;7.50;99.90
52965;DHT22;42923;53.220;6.528;2022-11-12T09:19:47;7.60;99.90
52965;DHT22;42923;53.220;6.528;2022-11-12T09:22:31;7.60;99.90
52965;DHT22;42923;53.220;6.528;2022-11-12T09:25:16;7.70;99.90
52965;DHT22;42923;53.220;6.528;2022-11-12T09:28:15;7.80;99.90
52965;DHT22;42923;53.220;6.528;2022-11-12T09:31:01;7.90;99.90
52965;DHT22;42923;53.220;6.528;2022-11-12T09:33:45;8.00;99.90
52965;DHT22;42923;53.220;6.528;2022-11-12T09:36:29;8.00;99.90
52965;DHT22;42923;53.220;6.528;2022-11-12T09:39:13;8.20;99.90
52965;DHT22;42923;53.220;6.528;2022-11-12T09:41:57;8.20;99.90
52965;DHT22;42923;53.220;6.528;2022-11-12T09:44:43;8.30;99.90
52965;DHT22;42923;53.220;6.528;2022-11-12T09:47:36;8.40;99.90
52965;DHT22;42923;53.220;6.528;2022-11-12T09:50:28;8.80;99.90
52965;DHT22;42923;53.220;6.528;2022-11-12T09:53:19;8.30;99.90
52965;DHT22;42923;53.220;6.528;2022-11-12T09:56:06;8.30;99.90
52965;DHT22;42923;53.220;6.528;2022-11-12T09:58:54;8.30;99.90
52965;DHT22;42923;53.220;6.528;2022-11-12T10:01:51;8.70;99.90
52965;DHT22;42923;53.220;6.528;2022-11-12T10:04:43;8.40;99.90
52965;DHT22;42923;53.220;6.528;2022-11-12T10:16:53;8.30;99.90
52965;DHT22;42923;53.220;6.528;2022-11-12T10:19:52;8.40;99.90
52965;DHT22;42923;53.220;6.528;2022-11-12T10:25:36;8.30;99.90
52965;DHT22;42923;53.220;6.528;2022-11-12T10:29:07;8.40;99.90
52965;DHT22;42923;53.220;6.528;2022-11-12T10:31:31;8.40;99.90
52965;DHT22;42923;53.220;6.528;2022-11-12T10:34:18;8.60;99.90
52965;DHT22;42923;53.220;6.528;2022-11-12T10:37:17;8.40;99.90
52965;DHT22;42923;53.220;6.528;2022-11-12T10:46:17;8.50;99.90
52965;DHT22;42923;53.220;6.528;2022-11-12T10:51:57;8.20;99.90
52965;DHT22;42923;53.220;6.528;2022-11-12T10:54:41;8.60;99.90
52965;DHT22;42923;53.220;6.528;2022-11-12T10:57:26;8.50;99.90
52965;DHT22;42923;53.220;6.528;2022-11-12T11:00:17;8.50;99.90
52965;DHT22;42923;53.220;6.528;2022-11-12T11:03:09;8.50;99.90
52965;DHT22;42923;53.220;6.528;2022-11-12T11:06:02;8.70;99.90
52965;DHT22;42923;53.220;6.528;2022-11-12T11:08:49;8.50;99.90
52965;DHT22;42923;53.220;6.528;2022-11-12T11:11:34;8.50;99.90
52965;DHT22;42923;53.220;6.528;2022-11-12T11:17:12;8.50;99.90
52965;DHT22;42923;53.220;6.528;2022-11-12T11:19:58;8.60;99.90
52965;DHT22;42923;53.220;6.528;2022-11-12T11:22:52;8.60;99.90
52965;DHT22;42923;53.220;6.528;2022-11-12T11:25:42;8.60;99.90
52965;DHT22;42923;53.220;6.528;2022-11-12T11:28:38;8.90;99.90
52965;DHT22;42923;53.220;6.528;2022-11-12T11:31:48;8.80;99.90
52965;DHT22;42923;53.220;6.528;2022-11-12T11:47:40;8.80;99.90
52965;DHT22;42923;53.220;6.528;2022-11-12T11:50:51;8.90;99.90
52965;DHT22;42923;53.220;6.528;2022-11-12T11:57:00;9.00;99.90
52965;DHT22;42923;53.220;6.528;2022-11-12T11:59:51;9.00;99.90
52965;DHT22;42923;53.220;6.528;2022-11-12T12:11:49;9.00;99.90
52965;DHT22;42923;53.220;6.528;2022-11-12T12:14:41;9.00;99.90
52965;DHT22;42923;53.220;6.528;2022-11-12T12:20:31;9.10;99.90
52965;DHT22;42923;53.220;6.528;2022-11-12T12:26:47;9.20;99.90
52965;DHT22;42923;53.220;6.528;2022-11-12T12:29:47;9.20;99.90
52965;DHT22;42923;53.220;6.528;2022-11-12T12:32:42;9.20;99.90
52965;DHT22;42923;53.220;6.528;2022-11-12T12:35:50;9.20;99.90
52965;DHT22;42923;53.220;6.528;2022-11-12T12:38:48;9.20;99.90
52965;DHT22;42923;53.220;6.528;2022-11-12T12:44:23;9.40;99.90
52965;DHT22;42923;53.220;6.528;2022-11-12T12:47:39;9.50;99.90
52965;DHT22;42923;53.220;6.528;2022-11-12T12:50:25;9.40;99.90
52965;DHT22;42923;53.220;6.528;2022-11-12T12:58:57;9.30;99.90
52965;DHT22;42923;53.220;6.528;2022-11-12T13:01:53;9.50;99.90
52965;DHT22;42923;53.220;6.528;2022-11-12T13:04:51;9.30;99.90
52965;DHT22;42923;53.220;6.528;2022-11-12T13:07:44;9.40;99.90
52965;DHT22;42923;53.220;6.528;2022-11-12T13:13:33;9.50;99.90
52965;DHT22;42923;53.220;6.528;2022-11-12T13:26:47;9.90;99.90
52965;DHT22;42923;53.220;6.528;2022-11-12T13:35:36;10.00;99.90
52965;DHT22;42923;53.220;6.528;2022-11-12T13:38:21;10.00;99.90
52965;DHT22;42923;53.220;6.528;2022-11-12T13:41:17;10.00;99.90
52965;DHT22;42923;53.220;6.528;2022-11-12T13:44:22;10.10;99.90
52965;DHT22;42923;53.220;6.528;2022-11-12T13:47:17;10.30;99.90
52965;DHT22;42923;53.220;6.528;2022-11-12T13:50:06;10.20;99.90
52965;DHT22;42923;53.220;6.528;2022-11-12T13:52:51;10.00;99.90
52965;DHT22;42923;53.220;6.528;2022-11-12T13:55:36;9.90;99.90
52965;DHT22;42923;53.220;6.528;2022-11-12T13:58:32;9.90;99.90
52965;DHT22;42923;53.220;6.528;2022-11-12T14:01:18;9.90;99.90
52965;DHT22;42923;53.220;6.528;2022-11-12T14:04:05;10.10;99.90
52965;DHT22;42923;53.220;6.528;2022-11-12T14:07:01;9.90;99.90
52965;DHT22;42923;53.220;6.528;2022-11-12T14:10:39;9.80;99.90
52965;DHT22;42923;53.220;6.528;2022-11-12T14:19:18;9.60;99.90
52965;DHT22;42923;53.220;6.528;2022-11-12T14:25:01;9.40;99.90
52965;DHT22;42923;53.220;6.528;2022-11-12T14:27:46;9.40;99.90
52965;DHT22;42923;53.220;6.528;2022-11-12T14:30:31;9.40;99.90
52965;DHT22;42923;53.220;6.528;2022-11-12T14:33:21;9.40;99.90
52965;DHT22;42923;53.220;6.528;2022-11-12T14:36:11;9.50;99.90
52965;DHT22;42923;53.220;6.528;2022-11-12T14:38:57;9.70;99.90
52965;DHT22;42923;53.220;6.528;2022-11-12T14:41:42;9.60;99.90
52965;DHT22;42923;53.220;6.528;2022-11-12T14:44:35;9.50;99.90
52965;DHT22;42923;53.220;6.528;2022-11-12T14:47:20;9.60;99.90
52965;DHT22;42923;53.220;6.528;2022-11-12T14:50:15;9.90;99.90
52965;DHT22;42923;53.220;6.528;2022-11-12T14:53:17;9.30;99.90
52965;DHT22;42923;53.220;6.528;2022-11-12T14:56:04;9.20;99.90
52965;DHT22;42923;53.220;6.528;2022-11-12T14:58:50;9.10;99.90
52965;DHT22;42923;53.220;6.528;2022-11-12T15:01:37;9.00;99.90
52965;DHT22;42923;53.220;6.528;2022-11-12T15:04:22;8.90;99.90
52965;DHT22;42923;53.220;6.528;2022-11-12T15:07:27;8.90;99.90
52965;DHT22;42923;53.220;6.528;2022-11-12T15:10:35;8.90;99.90
52965;DHT22;42923;53.220;6.528;2022-11-12T15:13:22;8.70;99.90
52965;DHT22;42923;53.220;6.528;2022-11-12T15:16:08;8.60;99.90
52965;DHT22;42923;53.220;6.528;2022-11-12T15:19:04;9.00;99.90
52965;DHT22;42923;53.220;6.528;2022-11-12T15:21:59;8.50;99.90
52965;DHT22;42923;53.220;6.528;2022-11-12T15:24:44;8.50;99.90
52965;DHT22;42923;53.220;6.528;2022-11-12T15:27:39;8.80;99.90
52965;DHT22;42923;53.220;6.528;2022-11-12T15:30:27;8.30;99.90
52965;DHT22;42923;53.220;6.528;2022-11-12T15:35:57;8.60;99.90
52965;DHT22;42923;53.220;6.528;2022-11-12T15:38:47;8.20;99.90
52965;DHT22;42923;53.220;6.528;2022-11-12T15:41:33;8.20;99.90
52965;DHT22;42923;53.220;6.528;2022-11-12T15:44:17;8.10;99.90
52965;DHT22;42923;53.220;6.528;2022-11-12T15:47:02;8.10;99.90
52965;DHT22;42923;53.220;6.528;2022-11-12T15:49:51;8.20;99.90
52965;DHT22;42923;53.220;6.528;2022-11-12T15:52:35;8.10;99.90
52965;DHT22;42923;53.220;6.528;2022-11-12T15:55:20;8.00;99.90
52965;DHT22;42923;53.220;6.528;2022-11-12T15:58:06;7.90;99.90
52965;DHT22;42923;53.220;6.528;2022-11-12T16:00:54;8.20;99.90
52965;DHT22;42923;53.220;6.528;2022-11-12T16:03:39;7.80;99.90
52965;DHT22;42923;53.220;6.528;2022-11-12T16:06:23;7.80;99.90
52965;DHT22;42923;53.220;6.528;2022-11-12T16:09:07;7.70;99.90
52965;DHT22;42923;53.220;6.528;2022-11-12T16:11:51;7.70;99.90
52965;DHT22;42923;53.220;6.528;2022-11-12T16:14:40;7.60;99.90
52965;DHT22;42923;53.220;6.528;2022-11-12T16:17:25;7.50;99.90
52965;DHT22;42923;53.220;6.528;2022-11-12T16:22:57;7.50;99.90
52965;DHT22;42923;53.220;6.528;2022-11-12T16:25:43;7.40;99.90
52965;DHT22;42923;53.220;6.528;2022-11-12T16:28:27;7.50;99.90
52965;DHT22;42923;53.220;6.528;2022-11-12T16:31:11;7.30;99.90
52965;DHT22;42923;53.220;6.528;2022-11-12T16:33:56;7.30;99.90
52965;DHT22;42923;53.220;6.528;2022-11-12T16:36:40;7.30;99.90
52965;DHT22;42923;53.220;6.528;2022-11-12T16:39:24;7.20;99.90
52965;DHT22;42923;53.220;6.528;2022-11-12T16:42:09;7.20;99.90
52965;DHT22;42923;53.220;6.528;2022-11-12T16:44:54;7.20;99.90
52965;DHT22;42923;53.220;6.528;2022-11-12T16:47:50;7.60;99.90
52965;DHT22;42923;53.220;6.528;2022-11-12T16:50:34;7.10;99.90
52965;DHT22;42923;53.220;6.528;2022-11-12T16:53:18;7.10;99.90
52965;DHT22;42923;53.220;6.528;2022-11-12T16:56:02;7.10;99.90
52965;DHT22;42923;53.220;6.528;2022-11-12T16:58:47;7.10;99.90
52965;DHT22;42923;53.220;6.528;2022-11-12T17:01:32;7.30;99.90
52965;DHT22;42923;53.220;6.528;2022-11-12T17:04:17;7.10;99.90
52965;DHT22;42923;53.220;6.528;2022-11-12T17:07:04;7.00;99.90
52965;DHT22;42923;53.220;6.528;2022-11-12T17:09:50;7.00;99.90
52965;DHT22;42923;53.220;6.528;2022-11-12T17:12:35;7.00;99.90
52965;DHT22;42923;53.220;6.528;2022-11-12T17:15:20;6.90;99.90
52965;DHT22;42923;53.220;6.528;2022-11-12T17:18:04;7.00;99.90
52965;DHT22;42923;53.220;6.528;2022-11-12T17:20:50;7.00;99.90
52965;DHT22;42923;53.220;6.528;2022-11-12T17:23:34;6.90;99.90
52965;DHT22;42923;53.220;6.528;2022-11-12T17:26:20;6.90;99.90
52965;DHT22;42923;53.220;6.528;2022-11-12T17:29:04;6.80;99.90
52965;DHT22;42923;53.220;6.528;2022-11-12T17:31:49;6.90;99.90
52965;DHT22;42923;53.220;6.528;2022-11-12T17:34:33;6.70;99.90
52965;DHT22;42923;53.220;6.528;2022-11-12T17:37:17;6.60;99.90
52965;DHT22;42923;53.220;6.528;2022-11-12T17:40:02;6.60;99.90
52965;DHT22;42923;53.220;6.528;2022-11-12T17:42:46;6.60;99.90
52965;DHT22;42923;53.220;6.528;2022-11-12T17:45:30;6.70;99.90
52965;DHT22;42923;53.220;6.528;2022-11-12T17:48:14;6.50;99.90
52965;DHT22;42923;53.220;6.528;2022-11-12T17:51:11;6.50;99.90
52965;DHT22;42923;53.220;6.528;2022-11-12T17:53:56;6.50;99.90
52965;DHT22;42923;53.220;6.528;2022-11-12T17:56:40;6.40;99.90
52965;DHT22;42923;53.220;6.528;2022-11-12T17:59:24;6.40;99.90
52965;DHT22;42923;53.220;6.528;2022-11-12T18:02:10;6.30;99.90
52965;DHT22;42923;53.220;6.528;2022-11-12T18:04:55;6.30;99.90
52965;DHT22;42923;53.220;6.528;2022-11-12T18:07:39;6.20;99.90
52965;DHT22;42923;53.220;6.528;2022-11-12T18:10:23;6.20;99.90
52965;DHT22;42923;53.220;6.528;2022-11-12T18:13:07;6.20;99.90
52965;DHT22;42923;53.220;6.528;2022-11-12T18:15:51;6.20;99.90
52965;DHT22;42923;53.220;6.528;2022-11-12T18:18:36;6.10;99.90
52965;DHT22;42923;53.220;6.528;2022-11-12T18:21:20;6.10;99.90
52965;DHT22;42923;53.220;6.528;2022-11-12T18:24:06;6.10;99.90
52965;DHT22;42923;53.220;6.528;2022-11-12T18:26:54;6.10;99.90
52965;DHT22;42923;53.220;6.528;2022-11-12T18:29:39;6.10;99.90
52965;DHT22;42923;53.220;6.528;2022-11-12T18:32:24;6.10;99.90
52965;DHT22;42923;53.220;6.528;2022-11-12T18:35:08;6.10;99.90
52965;DHT22;42923;53.220;6.528;2022-11-12T18:37:53;6.10;99.90
52965;DHT22;42923;53.220;6.528;2022-11-12T18:40:37;6.10;99.90
52965;DHT22;42923;53.220;6.528;2022-11-12T18:43:21;6.10;99.90
52965;DHT22;42923;53.220;6.528;2022-11-12T18:46:07;6.20;99.90
52965;DHT22;42923;53.220;6.528;2022-11-12T18:48:52;6.20;99.90
52965;DHT22;42923;53.220;6.528;2022-11-12T18:51:36;6.30;99.90
52965;DHT22;42923;53.220;6.528;2022-11-12T18:54:22;6.50;99.90
52965;DHT22;42923;53.220;6.528;2022-11-12T18:57:07;6.40;99.90
52965;DHT22;42923;53.220;6.528;2022-11-12T18:59:51;6.40;99.90
52965;DHT22;42923;53.220;6.528;2022-11-12T19:02:38;6.50;99.90
52965;DHT22;42923;53.220;6.528;2022-11-12T19:05:22;6.70;99.90
52965;DHT22;42923;53.220;6.528;2022-11-12T19:08:06;7.00;99.90
52965;DHT22;42923;53.220;6.528;2022-11-12T19:10:59;6.80;99.90
52965;DHT22;42923;53.220;6.528;2022-11-12T19:13:44;6.80;99.90
52965;DHT22;42923;53.220;6.528;2022-11-12T19:16:28;6.80;99.90
52965;DHT22;42923;53.220;6.528;2022-11-12T19:19:12;6.80;99.90
52965;DHT22;42923;53.220;6.528;2022-11-12T19:21:58;6.80;99.90
52965;DHT22;42923;53.220;6.528;2022-11-12T19:24:42;6.90;99.90
52965;DHT22;42923;53.220;6.528;2022-11-12T19:27:26;7.00;99.90
52965;DHT22;42923;53.220;6.528;2022-11-12T19:30:10;7.10;99.90
52965;DHT22;42923;53.220;6.528;2022-11-12T19:32:55;7.00;99.90
52965;DHT22;42923;53.220;6.528;2022-11-12T19:35:39;7.00;99.90